sensor_id;sensor_type;location;lat;lon;timestamp;pressure;altitude;pressure_sealevel;temperature;humidity
54369;BME280;40266;52.434;17.056;2023-09-07T00:02:41;101575.39;;;12.70;100.00
54369;BME280;40266;52.434;17.056;2023-09-07T00:06:07;101571.20;;;12.67;100.00
54369;BME280;40266;52.434;17.056;2023-09-07T00:09:31;101574.39;;;12.65;100.00
54369;BME280;40266;52.434;17.056;2023-09-07T00:12:44;101573.73;;;12.62;100.00
54369;BME280;40266;52.434;17.056;2023-09-07T00:16:48;101572.88;;;12.60;100.00
54369;BME280;40266;52.434;17.056;2023-09-07T00:20:05;101573.60;;;12.58;100.00
54369;BME280;40266;52.434;17.056;2023-09-07T00:24:05;101580.98;;;12.56;100.00
54369;BME280;40266;52.434;17.056;2023-09-07T00:27:11;101579.27;;;12.54;100.00
54369;BME280;40266;52.434;17.056;2023-09-07T00:41:37;101585.30;;;12.46;100.00
54369;BME280;40266;52.434;17.056;2023-09-07T00:51:36;101585.34;;;12.42;100.00
54369;BME280;40266;52.434;17.056;2023-09-07T01:01:45;101582.92;;;12.37;100.00
54369;BME280;40266;52.434;17.056;2023-09-07T01:04:27;101578.72;;;12.38;100.00
54369;BME280;40266;52.434;17.056;2023-09-07T01:07:25;101579.94;;;12.38;100.00
54369;BME280;40266;52.434;17.056;2023-09-07T01:10:11;101580.82;;;12.39;100.00
54369;BME280;40266;52.434;17.056;2023-09-07T01:12:53;101584.14;;;12.39;100.00
54369;BME280;40266;52.434;17.056;2023-09-07T01:15:34;101581.00;;;12.39;100.00
54369;BME280;40266;52.434;17.056;2023-09-07T01:18:17;101582.92;;;12.39;100.00
54369;BME280;40266;52.434;17.056;2023-09-07T01:21:20;101580.81;;;12.38;100.00
54369;BME280;40266;52.434;17.056;2023-09-07T01:24:06;101585.20;;;12.38;100.00
54369;BME280;40266;52.434;17.056;2023-09-07T01:26:49;101587.84;;;12.36;100.00
54369;BME280;40266;52.434;17.056;2023-09-07T01:29:31;101585.06;;;12.35;100.00
54369;BME280;40266;52.434;17.056;2023-09-07T01:32:13;101586.14;;;12.33;100.00
54369;BME280;40266;52.434;17.056;2023-09-07T01:34:57;101585.45;;;12.30;100.00
54369;BME280;40266;52.434;17.056;2023-09-07T01:37:39;101584.78;;;12.28;100.00
54369;BME280;40266;52.434;17.056;2023-09-07T01:40:21;101587.27;;;12.25;100.00
54369;BME280;40266;52.434;17.056;2023-09-07T01:43:03;101588.34;;;12.21;100.00
54369;BME280;40266;52.434;17.056;2023-09-07T01:45:45;101589.77;;;12.19;100.00
54369;BME280;40266;52.434;17.056;2023-09-07T01:48:26;101591.90;;;12.16;100.00
54369;BME280;40266;52.434;17.056;2023-09-07T01:51:08;101591.23;;;12.14;100.00
54369;BME280;40266;52.434;17.056;2023-09-07T01:53:50;101590.19;;;12.12;100.00
54369;BME280;40266;52.434;17.056;2023-09-07T01:56:31;101592.14;;;12.09;100.00
54369;BME280;40266;52.434;17.056;2023-09-07T01:59:13;101596.20;;;12.06;100.00
54369;BME280;40266;52.434;17.056;2023-09-07T02:01:55;101589.58;;;12.01;100.00
54369;BME280;40266;52.434;17.056;2023-09-07T02:04:37;101589.26;;;11.99;100.00
54369;BME280;40266;52.434;17.056;2023-09-07T02:07:18;101588.76;;;11.95;100.00
54369;BME280;40266;52.434;17.056;2023-09-07T02:10:01;101587.73;;;11.92;100.00
54369;BME280;40266;52.434;17.056;2023-09-07T02:12:46;101590.73;;;11.89;100.00
54369;BME280;40266;52.434;17.056;2023-09-07T02:15:28;101589.70;;;11.85;100.00
54369;BME280;40266;52.434;17.056;2023-09-07T02:18:09;101587.95;;;11.82;100.00
54369;BME280;40266;52.434;17.056;2023-09-07T02:20:51;101591.66;;;11.79;100.00
54369;BME280;40266;52.434;17.056;2023-09-07T02:23:33;101588.34;;;11.76;100.00
54369;BME280;40266;52.434;17.056;2023-09-07T02:26:14;101589.25;;;11.74;100.00
54369;BME280;40266;52.434;17.056;2023-09-07T02:28:56;101585.77;;;11.72;100.00
54369;BME280;40266;52.434;17.056;2023-09-07T02:31:39;101588.05;;;11.69;100.00
54369;BME280;40266;52.434;17.056;2023-09-07T02:34:22;101585.10;;;11.67;100.00
54369;BME280;40266;52.434;17.056;2023-09-07T02:37:03;101582.85;;;11.64;100.00
54369;BME280;40266;52.434;17.056;2023-09-07T02:39:45;101590.21;;;11.61;100.00
54369;BME280;40266;52.434;17.056;2023-09-07T02:42:27;101593.56;;;11.58;100.00
54369;BME280;40266;52.434;17.056;2023-09-07T02:45:12;101595.49;;;11.56;100.00
54369;BME280;40266;52.434;17.056;2023-09-07T02:47:53;101598.15;;;11.53;100.00
54369;BME280;40266;52.434;17.056;2023-09-07T02:50:35;101601.83;;;11.50;100.00
54369;BME280;40266;52.434;17.056;2023-09-07T02:53:18;101598.17;;;11.48;100.00
54369;BME280;40266;52.434;17.056;2023-09-07T02:56:00;101596.45;;;11.45;100.00
54369;BME280;40266;52.434;17.056;2023-09-07T02:58:45;101596.46;;;11.43;100.00
54369;BME280;40266;52.434;17.056;2023-09-07T03:01:28;101597.70;;;11.40;100.00
54369;BME280;40266;52.434;17.056;2023-09-07T03:04:10;101600.33;;;11.39;100.00
54369;BME280;40266;52.434;17.056;2023-09-07T03:06:52;101598.06;;;11.37;100.00
54369;BME280;40266;52.434;17.056;2023-09-07T03:09:33;101596.50;;;11.36;100.00
54369;BME280;40266;52.434;17.056;2023-09-07T03:12:15;101597.91;;;11.34;100.00
54369;BME280;40266;52.434;17.056;2023-09-07T03:14:56;101595.47;;;11.33;100.00
54369;BME280;40266;52.434;17.056;2023-09-07T03:17:38;101598.10;;;11.32;100.00
54369;BME280;40266;52.434;17.056;2023-09-07T03:20:20;101598.80;;;11.32;100.00
54369;BME280;40266;52.434;17.056;2023-09-07T03:23:04;101597.59;;;11.31;100.00
54369;BME280;40266;52.434;17.056;2023-09-07T03:25:45;101599.34;;;11.31;100.00
54369;BME280;40266;52.434;17.056;2023-09-07T03:28:27;101600.21;;;11.31;100.00
54369;BME280;40266;52.434;17.056;2023-09-07T03:31:08;101596.02;;;11.30;100.00
54369;BME280;40266;52.434;17.056;2023-09-07T03:33:50;101592.68;;;11.30;100.00
54369;BME280;40266;52.434;17.056;2023-09-07T03:36:32;101588.31;;;11.30;100.00
54369;BME280;40266;52.434;17.056;2023-09-07T03:39:14;101587.45;;;11.30;100.00
54369;BME280;40266;52.434;17.056;2023-09-07T03:41:56;101589.55;;;11.30;100.00
54369;BME280;40266;52.434;17.056;2023-09-07T03:44:38;101591.64;;;11.29;100.00
54369;BME280;40266;52.434;17.056;2023-09-07T03:47:20;101592.86;;;11.28;100.00
54369;BME280;40266;52.434;17.056;2023-09-07T03:50:02;101587.30;;;11.27;100.00
54369;BME280;40266;52.434;17.056;2023-09-07T03:52:45;101594.80;;;11.26;100.00
54369;BME280;40266;52.434;17.056;2023-09-07T03:55:27;101594.11;;;11.25;100.00
54369;BME280;40266;52.434;17.056;2023-09-07T03:58:09;101594.64;;;11.24;100.00
54369;BME280;40266;52.434;17.056;2023-09-07T04:00:52;101596.23;;;11.22;100.00
54369;BME280;40266;52.434;17.056;2023-09-07T04:03:33;101595.90;;;11.20;100.00
54369;BME280;40266;52.434;17.056;2023-09-07T04:06:15;101601.15;;;11.19;100.00
54369;BME280;40266;52.434;17.056;2023-09-07T04:08:56;101603.07;;;11.18;100.00
54369;BME280;40266;52.434;17.056;2023-09-07T04:11:38;101607.62;;;11.17;100.00
54369;BME280;40266;52.434;17.056;2023-09-07T04:14:21;101606.23;;;11.16;100.00
54369;BME280;40266;52.434;17.056;2023-09-07T04:17:03;101606.25;;;11.14;100.00
54369;BME280;40266;52.434;17.056;2023-09-07T04:19:44;101608.34;;;11.13;100.00
54369;BME280;40266;52.434;17.056;2023-09-07T04:22:26;101612.01;;;11.12;100.00
54369;BME280;40266;52.434;17.056;2023-09-07T04:25:08;101613.06;;;11.11;100.00
54369;BME280;40266;52.434;17.056;2023-09-07T04:27:50;101623.04;;;11.11;100.00
54369;BME280;40266;52.434;17.056;2023-09-07T04:30:37;101620.07;;;11.10;100.00
54369;BME280;40266;52.434;17.056;2023-09-07T04:33:19;101619.89;;;11.10;100.00
54369;BME280;40266;52.434;17.056;2023-09-07T04:36:11;101621.47;;;11.10;100.00
54369;BME280;40266;52.434;17.056;2023-09-07T04:38:54;101619.55;;;11.10;100.00
54369;BME280;40266;52.434;17.056;2023-09-07T04:41:36;101620.07;;;11.10;100.00
54369;BME280;40266;52.434;17.056;2023-09-07T04:44:17;101622.70;;;11.11;100.00
54369;BME280;40266;52.434;17.056;2023-09-07T04:46:59;101626.70;;;11.11;100.00
54369;BME280;40266;52.434;17.056;2023-09-07T04:49:42;101623.56;;;11.12;100.00
54369;BME280;40266;52.434;17.056;2023-09-07T04:52:23;101628.09;;;11.14;100.00
54369;BME280;40266;52.434;17.056;2023-09-07T04:55:06;101627.21;;;11.15;100.00
54369;BME280;40266;52.434;17.056;2023-09-07T04:57:49;101628.77;;;11.17;100.00
54369;BME280;40266;52.434;17.056;2023-09-07T05:00:30;101630.86;;;11.21;100.00
54369;BME280;40266;52.434;17.056;2023-09-07T05:03:12;101628.91;;;11.25;100.00
54369;BME280;40266;52.434;17.056;2023-09-07T05:05:54;101628.20;;;11.29;100.00
54369;BME280;40266;52.434;17.056;2023-09-07T05:08:35;101624.67;;;11.33;100.00
54369;BME280;40266;52.434;17.056;2023-09-07T05:11:17;101625.70;;;11.37;100.00
54369;BME280;40266;52.434;17.056;2023-09-07T05:13:58;101630.05;;;11.42;100.00
54369;BME280;40266;52.434;17.056;2023-09-07T05:16:44;101628.98;;;11.48;100.00
54369;BME280;40266;52.434;17.056;2023-09-07T05:19:27;101629.63;;;11.53;100.00
54369;BME280;40266;52.434;17.056;2023-09-07T05:22:08;101627.14;;;11.60;100.00
54369;BME280;40266;52.434;17.056;2023-09-07T05:24:50;101629.20;;;11.66;100.00
54369;BME280;40266;52.434;17.056;2023-09-07T05:27:31;101630.38;;;11.74;100.00
54369;BME280;40266;52.434;17.056;2023-09-07T05:30:13;101629.27;;;11.81;100.00
54369;BME280;40266;52.434;17.056;2023-09-07T05:32:55;101633.27;;;11.88;100.00
54369;BME280;40266;52.434;17.056;2023-09-07T05:35:37;101634.09;;;11.97;100.00
54369;BME280;40266;52.434;17.056;2023-09-07T05:38:20;101635.41;;;12.06;100.00
54369;BME280;40266;52.434;17.056;2023-09-07T05:41:01;101633.77;;;12.14;100.00
54369;BME280;40266;52.434;17.056;2023-09-07T05:43:43;101631.77;;;12.23;100.00
54369;BME280;40266;52.434;17.056;2023-09-07T05:46:24;101635.35;;;12.33;100.00
54369;BME280;40266;52.434;17.056;2023-09-07T05:49:06;101640.17;;;12.43;100.00
54369;BME280;40266;52.434;17.056;2023-09-07T05:51:48;101647.23;;;12.55;100.00
54369;BME280;40266;52.434;17.056;2023-09-07T05:54:30;101643.95;;;12.67;100.00
54369;BME280;40266;52.434;17.056;2023-09-07T05:57:11;101648.14;;;12.84;100.00
54369;BME280;40266;52.434;17.056;2023-09-07T05:59:54;101650.02;;;13.03;100.00
54369;BME280;40266;52.434;17.056;2023-09-07T06:02:37;101647.70;;;13.20;100.00
54369;BME280;40266;52.434;17.056;2023-09-07T06:05:19;101650.15;;;13.37;100.00
54369;BME280;40266;52.434;17.056;2023-09-07T06:08:03;101650.30;;;13.53;100.00
54369;BME280;40266;52.434;17.056;2023-09-07T06:10:45;101650.23;;;13.70;100.00
54369;BME280;40266;52.434;17.056;2023-09-07T06:13:27;101655.34;;;13.91;100.00
54369;BME280;40266;52.434;17.056;2023-09-07T06:17:42;101656.83;;;14.19;100.00
54369;BME280;40266;52.434;17.056;2023-09-07T06:20:27;101655.34;;;14.34;100.00
54369;BME280;40266;52.434;17.056;2023-09-07T06:23:12;101654.89;;;14.50;100.00
54369;BME280;40266;52.434;17.056;2023-09-07T06:25:55;101654.94;;;14.67;100.00
54369;BME280;40266;52.434;17.056;2023-09-07T06:28:39;101659.55;;;14.84;100.00
54369;BME280;40266;52.434;17.056;2023-09-07T06:31:22;101663.72;;;15.04;100.00
54369;BME280;40266;52.434;17.056;2023-09-07T06:34:05;101663.87;;;15.23;100.00
54369;BME280;40266;52.434;17.056;2023-09-07T06:36:48;101661.47;;;15.36;100.00
54369;BME280;40266;52.434;17.056;2023-09-07T06:39:35;101659.22;;;15.51;100.00
54369;BME280;40266;52.434;17.056;2023-09-07T06:42:18;101659.95;;;15.65;100.00
54369;BME280;40266;52.434;17.056;2023-09-07T06:45:07;101666.21;;;15.85;100.00
54369;BME280;40266;52.434;17.056;2023-09-07T06:47:51;101663.98;;;16.53;100.00
54369;BME280;40266;52.434;17.056;2023-09-07T06:50:36;101665.11;;;17.03;100.00
54369;BME280;40266;52.434;17.056;2023-09-07T06:53:20;101666.52;;;17.10;100.00
54369;BME280;40266;52.434;17.056;2023-09-07T06:56:04;101667.92;;;17.16;100.00
54369;BME280;40266;52.434;17.056;2023-09-07T06:58:47;101669.45;;;17.24;100.00
54369;BME280;40266;52.434;17.056;2023-09-07T07:01:30;101673.66;;;17.37;100.00
54369;BME280;40266;52.434;17.056;2023-09-07T07:04:13;101677.98;;;17.58;100.00
54369;BME280;40266;52.434;17.056;2023-09-07T07:06:57;101676.33;;;18.11;100.00
54369;BME280;40266;52.434;17.056;2023-09-07T07:09:40;101680.13;;;18.24;100.00
54369;BME280;40266;52.434;17.056;2023-09-07T07:12:23;101675.61;;;18.53;100.00
54369;BME280;40266;52.434;17.056;2023-09-07T07:15:06;101676.38;;;18.92;100.00
54369;BME280;40266;52.434;17.056;2023-09-07T07:17:50;101675.95;;;19.04;100.00
54369;BME280;40266;52.434;17.056;2023-09-07T07:20:42;101680.63;;;19.30;100.00
54369;BME280;40266;52.434;17.056;2023-09-07T07:23:27;101678.33;;;20.20;100.00
54369;BME280;40266;52.434;17.056;2023-09-07T07:26:10;101679.75;;;20.37;99.83
54369;BME280;40266;52.434;17.056;2023-09-07T07:28:53;101683.84;;;20.28;99.77
54369;BME280;40266;52.434;17.056;2023-09-07T07:31:38;101685.05;;;20.33;98.95
54369;BME280;40266;52.434;17.056;2023-09-07T07:34:21;101689.21;;;20.57;97.50
54369;BME280;40266;52.434;17.056;2023-09-07T07:37:04;101692.54;;;21.22;96.13
54369;BME280;40266;52.434;17.056;2023-09-07T07:39:47;101696.43;;;21.34;93.75
54369;BME280;40266;52.434;17.056;2023-09-07T07:42:30;101695.87;;;21.80;91.77
54369;BME280;40266;52.434;17.056;2023-09-07T07:45:15;101698.41;;;22.48;88.39
54369;BME280;40266;52.434;17.056;2023-09-07T07:48:03;101704.79;;;22.59;85.71
54369;BME280;40266;52.434;17.056;2023-09-07T07:50:48;101699.98;;;22.38;86.62
54369;BME280;40266;52.434;17.056;2023-09-07T07:53:31;101704.60;;;22.24;85.05
54369;BME280;40266;52.434;17.056;2023-09-07T07:56:17;101705.83;;;22.32;84.85
54369;BME280;40266;52.434;17.056;2023-09-07T07:59:02;101707.28;;;22.66;83.66
54369;BME280;40266;52.434;17.056;2023-09-07T08:01:46;101706.52;;;22.74;83.56
54369;BME280;40266;52.434;17.056;2023-09-07T08:04:29;101709.32;;;22.61;81.82
54369;BME280;40266;52.434;17.056;2023-09-07T08:07:15;101706.16;;;22.46;81.23
54369;BME280;40266;52.434;17.056;2023-09-07T08:09:59;101710.09;;;22.36;81.77
54369;BME280;40266;52.434;17.056;2023-09-07T08:12:42;101712.59;;;22.28;80.91
54369;BME280;40266;52.434;17.056;2023-09-07T08:15:27;101711.33;;;22.29;81.26
54369;BME280;40266;52.434;17.056;2023-09-07T08:18:10;101708.97;;;22.26;81.83
54369;BME280;40266;52.434;17.056;2023-09-07T08:20:54;101710.19;;;22.23;81.56
54369;BME280;40266;52.434;17.056;2023-09-07T08:23:38;101712.42;;;22.21;81.53
54369;BME280;40266;52.434;17.056;2023-09-07T08:26:21;101709.56;;;22.21;81.05
54369;BME280;40266;52.434;17.056;2023-09-07T08:29:05;101711.27;;;22.26;80.45
54369;BME280;40266;52.434;17.056;2023-09-07T08:31:50;101711.40;;;22.34;79.92
54369;BME280;40266;52.434;17.056;2023-09-07T08:34:33;101706.30;;;22.51;79.19
54369;BME280;40266;52.434;17.056;2023-09-07T08:37:18;101707.73;;;22.75;77.50
54369;BME280;40266;52.434;17.056;2023-09-07T08:40:08;101709.27;;;22.86;77.20
54369;BME280;40266;52.434;17.056;2023-09-07T08:42:51;101705.27;;;22.91;77.88
54369;BME280;40266;52.434;17.056;2023-09-07T08:45:51;101701.59;;;22.93;76.96
54369;BME280;40266;52.434;17.056;2023-09-07T08:48:42;101697.37;;;22.96;76.41
54369;BME280;40266;52.434;17.056;2023-09-07T08:51:26;101695.89;;;23.01;76.39
54369;BME280;40266;52.434;17.056;2023-09-07T08:54:14;101694.69;;;23.07;76.39
54369;BME280;40266;52.434;17.056;2023-09-07T08:56:57;101694.05;;;23.12;74.63
54369;BME280;40266;52.434;17.056;2023-09-07T08:59:41;101694.00;;;23.19;73.97
54369;BME280;40266;52.434;17.056;2023-09-07T09:02:24;101692.56;;;23.26;71.99
54369;BME280;40266;52.434;17.056;2023-09-07T09:05:09;101693.95;;;23.36;72.88
54369;BME280;40266;52.434;17.056;2023-09-07T09:08:03;101691.42;;;23.47;72.50
54369;BME280;40266;52.434;17.056;2023-09-07T09:10:47;101692.41;;;23.61;72.04
54369;BME280;40266;52.434;17.056;2023-09-07T09:13:31;101690.83;;;23.70;70.97
54369;BME280;40266;52.434;17.056;2023-09-07T09:16:15;101689.89;;;23.81;69.91
54369;BME280;40266;52.434;17.056;2023-09-07T09:18:59;101692.56;;;23.94;68.42
54369;BME280;40266;52.434;17.056;2023-09-07T09:21:44;101696.98;;;24.00;65.97
54369;BME280;40266;52.434;17.056;2023-09-07T09:24:31;101699.55;;;24.08;64.98
54369;BME280;40266;52.434;17.056;2023-09-07T09:27:16;101695.38;;;24.22;64.52
54369;BME280;40266;52.434;17.056;2023-09-07T09:30:00;101693.73;;;24.35;64.68
54369;BME280;40266;52.434;17.056;2023-09-07T09:32:43;101688.23;;;24.43;64.64
54369;BME280;40266;52.434;17.056;2023-09-07T09:35:27;101688.89;;;24.50;63.43
54369;BME280;40266;52.434;17.056;2023-09-07T09:38:10;101690.58;;;24.61;63.81
54369;BME280;40266;52.434;17.056;2023-09-07T09:40:56;101689.81;;;24.68;60.48
54369;BME280;40266;52.434;17.056;2023-09-07T09:43:39;101688.23;;;24.76;58.31
54369;BME280;40266;52.434;17.056;2023-09-07T09:46:24;101689.09;;;24.85;58.13
54369;BME280;40266;52.434;17.056;2023-09-07T09:49:08;101689.16;;;24.96;57.93
54369;BME280;40266;52.434;17.056;2023-09-07T09:51:51;101687.62;;;25.03;57.43
54369;BME280;40266;52.434;17.056;2023-09-07T09:54:35;101690.09;;;25.10;52.57
54369;BME280;40266;52.434;17.056;2023-09-07T09:57:18;101688.14;;;25.18;54.95
54369;BME280;40266;52.434;17.056;2023-09-07T10:00:04;101687.04;;;25.27;55.28
54369;BME280;40266;52.434;17.056;2023-09-07T10:05:55;101680.77;;;25.44;55.95
54369;BME280;40266;52.434;17.056;2023-09-07T10:08:39;101685.45;;;25.49;56.41
54369;BME280;40266;52.434;17.056;2023-09-07T10:11:32;101685.46;;;25.55;56.69
54369;BME280;40266;52.434;17.056;2023-09-07T10:14:16;101681.89;;;25.58;56.20
54369;BME280;40266;52.434;17.056;2023-09-07T10:16:59;101682.55;;;25.59;56.32
54369;BME280;40266;52.434;17.056;2023-09-07T10:19:48;101683.62;;;25.61;54.65
54369;BME280;40266;52.434;17.056;2023-09-07T10:22:35;101681.53;;;25.69;53.92
54369;BME280;40266;52.434;17.056;2023-09-07T10:25:22;101680.29;;;25.74;55.00
54369;BME280;40266;52.434;17.056;2023-09-07T10:28:24;101682.10;;;25.76;53.19
54369;BME280;40266;52.434;17.056;2023-09-07T10:31:14;101679.33;;;25.80;51.36
54369;BME280;40266;52.434;17.056;2023-09-07T10:34:08;101679.09;;;25.84;51.53
54369;BME280;40266;52.434;17.056;2023-09-07T10:36:56;101674.75;;;25.88;51.71
54369;BME280;40266;52.434;17.056;2023-09-07T10:39:40;101676.27;;;25.92;52.41
54369;BME280;40266;52.434;17.056;2023-09-07T10:42:26;101676.64;;;25.95;52.28
54369;BME280;40266;52.434;17.056;2023-09-07T10:45:14;101672.08;;;25.99;51.80
54369;BME280;40266;52.434;17.056;2023-09-07T10:48:02;101669.66;;;26.03;53.21
54369;BME280;40266;52.434;17.056;2023-09-07T10:50:47;101668.55;;;26.03;52.89
54369;BME280;40266;52.434;17.056;2023-09-07T10:53:31;101663.48;;;26.07;51.97
54369;BME280;40266;52.434;17.056;2023-09-07T10:56:15;101658.77;;;26.07;51.37
54369;BME280;40266;52.434;17.056;2023-09-07T10:58:58;101661.30;;;26.13;52.82
54369;BME280;40266;52.434;17.056;2023-09-07T11:01:44;101661.08;;;26.16;52.33
54369;BME280;40266;52.434;17.056;2023-09-07T11:04:27;101660.45;;;26.20;50.83
54369;BME280;40266;52.434;17.056;2023-09-07T11:07:12;101661.88;;;26.25;50.13
54369;BME280;40266;52.434;17.056;2023-09-07T11:09:55;101660.80;;;26.30;49.98
54369;BME280;40266;52.434;17.056;2023-09-07T11:12:40;101660.63;;;26.30;49.01
54369;BME280;40266;52.434;17.056;2023-09-07T11:15:23;101660.04;;;26.31;49.62
54369;BME280;40266;52.434;17.056;2023-09-07T11:18:06;101656.64;;;26.34;50.44
54369;BME280;40266;52.434;17.056;2023-09-07T11:20:51;101654.06;;;26.35;49.93
54369;BME280;40266;52.434;17.056;2023-09-07T11:23:34;101648.85;;;26.32;50.12
54369;BME280;40266;52.434;17.056;2023-09-07T11:26:21;101648.92;;;26.34;49.73
54369;BME280;40266;52.434;17.056;2023-09-07T11:29:04;101649.83;;;26.42;50.99
54369;BME280;40266;52.434;17.056;2023-09-07T11:31:47;101648.91;;;26.45;50.76
54369;BME280;40266;52.434;17.056;2023-09-07T11:34:30;101647.16;;;26.47;51.38
54369;BME280;40266;52.434;17.056;2023-09-07T11:37:13;101647.17;;;26.49;51.21
54369;BME280;40266;52.434;17.056;2023-09-07T11:39:56;101643.54;;;26.50;50.50
54369;BME280;40266;52.434;17.056;2023-09-07T11:42:40;101647.63;;;26.50;50.10
54369;BME280;40266;52.434;17.056;2023-09-07T11:45:24;101645.64;;;26.53;49.59
54369;BME280;40266;52.434;17.056;2023-09-07T11:48:09;101643.34;;;26.56;50.20
54369;BME280;40266;52.434;17.056;2023-09-07T11:50:53;101642.90;;;26.54;49.66
54369;BME280;40266;52.434;17.056;2023-09-07T11:53:36;101639.27;;;26.55;49.22
54369;BME280;40266;52.434;17.056;2023-09-07T11:56:19;101640.52;;;26.55;48.51
54369;BME280;40266;52.434;17.056;2023-09-07T11:59:02;101642.55;;;26.54;48.97
54369;BME280;40266;52.434;17.056;2023-09-07T12:01:45;101644.45;;;26.52;48.07
54369;BME280;40266;52.434;17.056;2023-09-07T12:04:28;101636.73;;;26.50;48.13
54369;BME280;40266;52.434;17.056;2023-09-07T12:07:11;101639.09;;;26.49;48.32
54369;BME280;40266;52.434;17.056;2023-09-07T12:09:55;101636.20;;;26.52;48.44
54369;BME280;40266;52.434;17.056;2023-09-07T12:12:41;101634.70;;;26.54;47.96
54369;BME280;40266;52.434;17.056;2023-09-07T12:15:24;101636.20;;;26.58;49.35
54369;BME280;40266;52.434;17.056;2023-09-07T12:18:07;101635.84;;;26.61;49.21
54369;BME280;40266;52.434;17.056;2023-09-07T12:20:51;101632.02;;;26.61;47.99
54369;BME280;40266;52.434;17.056;2023-09-07T12:23:34;101627.54;;;26.61;47.20
54369;BME280;40266;52.434;17.056;2023-09-07T12:26:17;101623.63;;;26.63;47.41
54369;BME280;40266;52.434;17.056;2023-09-07T12:29:02;101620.63;;;26.65;47.88
54369;BME280;40266;52.434;17.056;2023-09-07T12:31:45;101618.23;;;26.69;48.78
54369;BME280;40266;52.434;17.056;2023-09-07T12:34:28;101614.38;;;26.72;48.07
54369;BME280;40266;52.434;17.056;2023-09-07T12:37:14;101610.33;;;26.77;46.39
54369;BME280;40266;52.434;17.056;2023-09-07T12:39:57;101610.03;;;26.81;47.75
54369;BME280;40266;52.434;17.056;2023-09-07T12:42:41;101611.41;;;26.82;47.43
54369;BME280;40266;52.434;17.056;2023-09-07T12:45:25;101609.58;;;26.85;47.51
54369;BME280;40266;52.434;17.056;2023-09-07T12:48:09;101605.16;;;26.89;48.13
54369;BME280;40266;52.434;17.056;2023-09-07T12:50:53;101602.33;;;26.91;48.44
54369;BME280;40266;52.434;17.056;2023-09-07T12:53:37;101601.28;;;26.93;47.38
54369;BME280;40266;52.434;17.056;2023-09-07T12:56:20;101596.48;;;26.98;45.97
54369;BME280;40266;52.434;17.056;2023-09-07T12:59:03;101595.72;;;27.01;45.87
54369;BME280;40266;52.434;17.056;2023-09-07T13:01:46;101593.23;;;27.03;46.15
54369;BME280;40266;52.434;17.056;2023-09-07T13:04:30;101589.04;;;27.04;44.98
54369;BME280;40266;52.434;17.056;2023-09-07T13:07:13;101587.83;;;27.06;45.77
54369;BME280;40266;52.434;17.056;2023-09-07T13:09:56;101583.64;;;27.09;45.02
54369;BME280;40266;52.434;17.056;2023-09-07T13:12:41;101576.41;;;27.12;46.26
54369;BME280;40266;52.434;17.056;2023-09-07T13:15:24;101571.18;;;27.13;46.49
54369;BME280;40266;52.434;17.056;2023-09-07T13:18:07;101571.40;;;27.12;46.27
54369;BME280;40266;52.434;17.056;2023-09-07T13:20:51;101567.96;;;27.10;45.40
54369;BME280;40266;52.434;17.056;2023-09-07T13:23:42;101566.73;;;27.12;46.33
54369;BME280;40266;52.434;17.056;2023-09-07T13:26:25;101567.52;;;27.13;46.18
54369;BME280;40266;52.434;17.056;2023-09-07T13:29:08;101570.65;;;27.12;46.95
54369;BME280;40266;52.434;17.056;2023-09-07T13:31:51;101572.88;;;27.09;46.10
54369;BME280;40266;52.434;17.056;2023-09-07T13:34:36;101568.58;;;27.07;46.11
54369;BME280;40266;52.434;17.056;2023-09-07T13:37:19;101565.44;;;27.05;45.88
54369;BME280;40266;52.434;17.056;2023-09-07T13:40:02;101562.56;;;27.05;46.59
54369;BME280;40266;52.434;17.056;2023-09-07T13:42:48;101564.11;;;27.06;47.07
54369;BME280;40266;52.434;17.056;2023-09-07T13:45:31;101561.10;;;27.08;46.99
54369;BME280;40266;52.434;17.056;2023-09-07T13:48:14;101558.10;;;27.10;47.21
54369;BME280;40266;52.434;17.056;2023-09-07T13:50:57;101559.08;;;27.11;46.66
54369;BME280;40266;52.434;17.056;2023-09-07T13:53:40;101555.89;;;27.13;46.39
54369;BME280;40266;52.434;17.056;2023-09-07T13:56:23;101551.95;;;27.13;46.11
54369;BME280;40266;52.434;17.056;2023-09-07T13:59:06;101554.54;;;27.12;47.01
54369;BME280;40266;52.434;17.056;2023-09-07T14:01:50;101552.84;;;27.13;47.44
54369;BME280;40266;52.434;17.056;2023-09-07T14:04:34;101550.54;;;27.13;46.77
54369;BME280;40266;52.434;17.056;2023-09-07T14:07:18;101551.14;;;27.12;45.31
54369;BME280;40266;52.434;17.056;2023-09-07T14:10:01;101548.61;;;27.12;45.99
54369;BME280;40266;52.434;17.056;2023-09-07T14:12:44;101547.63;;;27.11;46.62
54369;BME280;40266;52.434;17.056;2023-09-07T14:15:29;101546.58;;;27.08;47.03
54369;BME280;40266;52.434;17.056;2023-09-07T14:18:13;101544.67;;;27.05;47.59
54369;BME280;40266;52.434;17.056;2023-09-07T14:20:56;101544.17;;;27.02;47.33
54369;BME280;40266;52.434;17.056;2023-09-07T14:23:44;101546.00;;;26.99;45.87
54369;BME280;40266;52.434;17.056;2023-09-07T14:26:28;101548.25;;;26.98;46.29
54369;BME280;40266;52.434;17.056;2023-09-07T14:29:11;101544.54;;;26.97;47.16
54369;BME280;40266;52.434;17.056;2023-09-07T14:31:54;101542.01;;;26.95;47.72
54369;BME280;40266;52.434;17.056;2023-09-07T14:34:38;101545.10;;;26.91;46.85
54369;BME280;40266;52.434;17.056;2023-09-07T14:37:21;101541.02;;;26.89;46.00